sensor_id;sensor_type;location;lat;lon;timestamp;temperature;humidity
949;DHT22;461;51.436;7.312;2024-03-08T05:11:45;3.10;99.90
949;DHT22;461;51.436;7.312;2024-03-08T05:14:13;3.20;99.90
949;DHT22;461;51.436;7.312;2024-03-08T05:16:43;3.30;99.90
949;DHT22;461;51.436;7.312;2024-03-08T05:19:09;3.30;99.90
949;DHT22;461;51.436;7.312;2024-03-08T05:21:34;3.30;99.90
949;DHT22;461;51.436;7.312;2024-03-08T05:24:00;3.20;99.90
949;DHT22;461;51.436;7.312;2024-03-08T05:26:26;3.20;99.90
949;DHT22;461;51.436;7.312;2024-03-08T05:28:52;3.20;99.90
949;DHT22;461;51.436;7.312;2024-03-08T05:31:21;3.30;99.90
949;DHT22;461;51.436;7.312;2024-03-08T05:33:50;3.20;99.90
949;DHT22;461;51.436;7.312;2024-03-08T05:36:16;3.30;99.90
949;DHT22;461;51.436;7.312;2024-03-08T05:38:45;3.20;99.90
949;DHT22;461;51.436;7.312;2024-03-08T05:41:11;3.20;99.90
949;DHT22;461;51.436;7.312;2024-03-08T05:43:40;3.20;99.90
949;DHT22;461;51.436;7.312;2024-03-08T05:46:07;3.10;99.90
949;DHT22;461;51.436;7.312;2024-03-08T05:48:33;3.00;99.90
949;DHT22;461;51.436;7.312;2024-03-08T05:51:00;3.00;99.90
949;DHT22;461;51.436;7.312;2024-03-08T05:53:27;3.00;99.90
949;DHT22;461;51.436;7.312;2024-03-08T05:55:53;3.10;99.90
949;DHT22;461;51.436;7.312;2024-03-08T05:58:19;3.00;99.90
949;DHT22;461;51.436;7.312;2024-03-08T06:00:45;3.00;99.90
949;DHT22;461;51.436;7.312;2024-03-08T06:03:11;3.00;99.90
949;DHT22;461;51.436;7.312;2024-03-08T06:05:37;3.00;99.90
949;DHT22;461;51.436;7.312;2024-03-08T06:08:06;2.90;99.90
949;DHT22;461;51.436;7.312;2024-03-08T06:10:33;2.90;99.90
949;DHT22;461;51.436;7.312;2024-03-08T06:12:59;2.90;99.90
949;DHT22;461;51.436;7.312;2024-03-08T06:15:25;2.80;99.90
949;DHT22;461;51.436;7.312;2024-03-08T06:17:51;2.80;99.90
949;DHT22;461;51.436;7.312;2024-03-08T06:20:19;2.80;99.90
949;DHT22;461;51.436;7.312;2024-03-08T06:22:45;2.80;99.90
949;DHT22;461;51.436;7.312;2024-03-08T06:25:11;2.80;99.90
949;DHT22;461;51.436;7.312;2024-03-08T06:27:43;2.80;99.90
949;DHT22;461;51.436;7.312;2024-03-08T06:30:10;2.90;99.90
949;DHT22;461;51.436;7.312;2024-03-08T06:32:36;2.90;99.90
949;DHT22;461;51.436;7.312;2024-03-08T06:35:03;2.90;99.90
949;DHT22;461;51.436;7.312;2024-03-08T06:37:34;2.80;99.90
949;DHT22;461;51.436;7.312;2024-03-08T06:40:01;2.90;99.90
949;DHT22;461;51.436;7.312;2024-03-08T06:42:30;2.90;99.90
949;DHT22;461;51.436;7.312;2024-03-08T06:45:05;2.90;99.90
949;DHT22;461;51.436;7.312;2024-03-08T06:47:32;3.00;99.90
949;DHT22;461;51.436;7.312;2024-03-08T06:49:58;3.10;99.90
949;DHT22;461;51.436;7.312;2024-03-08T06:52:24;3.20;99.90
949;DHT22;461;51.436;7.312;2024-03-08T06:55:02;3.40;99.90
949;DHT22;461;51.436;7.312;2024-03-08T06:57:31;3.60;99.90
949;DHT22;461;51.436;7.312;2024-03-08T06:59:57;3.90;99.90
949;DHT22;461;51.436;7.312;2024-03-08T07:02:23;4.10;99.90
949;DHT22;461;51.436;7.312;2024-03-08T07:04:53;4.40;99.90
949;DHT22;461;51.436;7.312;2024-03-08T07:07:19;4.60;99.90
949;DHT22;461;51.436;7.312;2024-03-08T07:09:47;4.80;99.90
949;DHT22;461;51.436;7.312;2024-03-08T07:44:36;4.90;99.90
949;DHT22;461;51.436;7.312;2024-03-08T07:49:36;6.70;99.90
949;DHT22;461;51.436;7.312;2024-03-08T07:52:10;7.00;99.90
949;DHT22;461;51.436;7.312;2024-03-08T07:54:44;7.30;99.90
949;DHT22;461;51.436;7.312;2024-03-08T07:57:10;7.40;99.90
949;DHT22;461;51.436;7.312;2024-03-08T07:59:36;7.60;99.90
949;DHT22;461;51.436;7.312;2024-03-08T08:02:02;7.80;99.90
949;DHT22;461;51.436;7.312;2024-03-08T08:04:31;8.10;99.90
949;DHT22;461;51.436;7.312;2024-03-08T08:06:56;8.70;99.90
949;DHT22;461;51.436;7.312;2024-03-08T08:12:00;9.10;99.90
949;DHT22;461;51.436;7.312;2024-03-08T08:14:29;10.30;99.90
949;DHT22;461;51.436;7.312;2024-03-08T08:16:57;10.70;99.90
949;DHT22;461;51.436;7.312;2024-03-08T08:19:32;11.00;99.90
949;DHT22;461;51.436;7.312;2024-03-08T08:21:59;11.20;99.90
949;DHT22;461;51.436;7.312;2024-03-08T08:24:27;11.40;99.90
949;DHT22;461;51.436;7.312;2024-03-08T08:29:38;11.30;99.90
949;DHT22;461;51.436;7.312;2024-03-08T08:32:40;11.40;99.90
949;DHT22;461;51.436;7.312;2024-03-08T08:42:17;11.20;99.90
949;DHT22;461;51.436;7.312;2024-03-08T08:44:43;11.30;99.90
949;DHT22;461;51.436;7.312;2024-03-08T08:47:30;11.50;99.90
949;DHT22;461;51.436;7.312;2024-03-08T09:30:12;10.70;99.90
949;DHT22;461;51.436;7.312;2024-03-08T09:32:38;10.60;99.90
949;DHT22;461;51.436;7.312;2024-03-08T09:35:04;10.20;99.90
949;DHT22;461;51.436;7.312;2024-03-08T09:37:36;10.10;99.90
949;DHT22;461;51.436;7.312;2024-03-08T09:40:02;10.00;99.90
949;DHT22;461;51.436;7.312;2024-03-08T09:42:49;10.00;99.90
949;DHT22;461;51.436;7.312;2024-03-08T09:48:16;10.40;99.90
949;DHT22;461;51.436;7.312;2024-03-08T09:50:44;10.60;99.90
949;DHT22;461;51.436;7.312;2024-03-08T09:53:14;10.80;99.90
949;DHT22;461;51.436;7.312;2024-03-08T09:55:51;11.00;99.90
949;DHT22;461;51.436;7.312;2024-03-08T09:58:26;11.00;99.90
949;DHT22;461;51.436;7.312;2024-03-08T10:01:41;10.90;99.90
949;DHT22;461;51.436;7.312;2024-03-08T10:28:12;11.70;99.90
949;DHT22;461;51.436;7.312;2024-03-08T10:31:16;11.90;99.90
949;DHT22;461;51.436;7.312;2024-03-08T10:33:49;12.10;99.90
949;DHT22;461;51.436;7.312;2024-03-08T10:36:47;12.20;99.90
949;DHT22;461;51.436;7.312;2024-03-08T12:49:01;16.80;90.20
949;DHT22;461;51.436;7.312;2024-03-08T12:51:30;17.40;90.70
949;DHT22;461;51.436;7.312;2024-03-08T12:53:56;17.80;87.70
949;DHT22;461;51.436;7.312;2024-03-08T16:49:37;13.40;78.40
949;DHT22;461;51.436;7.312;2024-03-08T16:52:08;13.40;77.80
949;DHT22;461;51.436;7.312;2024-03-08T17:04:23;13.20;78.30
949;DHT22;461;51.436;7.312;2024-03-08T17:07:30;13.10;78.40
949;DHT22;461;51.436;7.312;2024-03-08T17:10:10;12.90;78.60
949;DHT22;461;51.436;7.312;2024-03-08T17:12:42;12.80;79.30
949;DHT22;461;51.436;7.312;2024-03-08T17:15:12;12.70;79.60
949;DHT22;461;51.436;7.312;2024-03-08T17:17:50;12.80;80.00
949;DHT22;461;51.436;7.312;2024-03-08T17:20:19;12.90;79.50
949;DHT22;461;51.436;7.312;2024-03-08T17:22:53;12.90;79.40
949;DHT22;461;51.436;7.312;2024-03-08T17:25:28;12.80;79.50
949;DHT22;461;51.436;7.312;2024-03-08T17:27:55;12.80;79.80
949;DHT22;461;51.436;7.312;2024-03-08T17:36:06;12.40;80.50
949;DHT22;461;51.436;7.312;2024-03-08T17:42:55;11.90;82.10
949;DHT22;461;51.436;7.312;2024-03-08T17:52:51;11.40;85.20
949;DHT22;461;51.436;7.312;2024-03-08T17:55:55;11.40;85.80
949;DHT22;461;51.436;7.312;2024-03-08T17:58:25;11.40;86.10
949;DHT22;461;51.436;7.312;2024-03-08T18:00:52;11.20;86.60
949;DHT22;461;51.436;7.312;2024-03-08T18:03:19;11.10;87.30
949;DHT22;461;51.436;7.312;2024-03-08T18:05:53;10.90;87.90
949;DHT22;461;51.436;7.312;2024-03-08T18:08:24;10.80;88.60
949;DHT22;461;51.436;7.312;2024-03-08T18:10:50;10.70;88.50
949;DHT22;461;51.436;7.312;2024-03-08T18:13:16;10.60;89.50
949;DHT22;461;51.436;7.312;2024-03-08T18:15:42;10.60;90.00
949;DHT22;461;51.436;7.312;2024-03-08T18:18:09;10.60;89.90
949;DHT22;461;51.436;7.312;2024-03-08T18:20:37;10.60;90.20
949;DHT22;461;51.436;7.312;2024-03-08T18:23:19;10.60;90.20
949;DHT22;461;51.436;7.312;2024-03-08T18:25:52;10.50;90.80
949;DHT22;461;51.436;7.312;2024-03-08T18:28:17;10.30;91.10
949;DHT22;461;51.436;7.312;2024-03-08T18:30:43;10.20;91.30
949;DHT22;461;51.436;7.312;2024-03-08T18:33:10;10.20;91.70
949;DHT22;461;51.436;7.312;2024-03-08T18:35:37;10.00;92.00
949;DHT22;461;51.436;7.312;2024-03-08T18:38:04;10.00;92.30
949;DHT22;461;51.436;7.312;2024-03-08T18:40:32;10.10;92.50
949;DHT22;461;51.436;7.312;2024-03-08T18:42:58;10.10;92.70
949;DHT22;461;51.436;7.312;2024-03-08T18:45:26;10.00;92.70
949;DHT22;461;51.436;7.312;2024-03-08T18:47:53;9.90;93.70
949;DHT22;461;51.436;7.312;2024-03-08T18:50:23;9.90;93.90
949;DHT22;461;51.436;7.312;2024-03-08T18:52:54;9.80;94.10
949;DHT22;461;51.436;7.312;2024-03-08T18:55:24;9.80;94.50
949;DHT22;461;51.436;7.312;2024-03-08T18:57:54;9.70;94.60
949;DHT22;461;51.436;7.312;2024-03-08T19:00:24;9.70;94.70
949;DHT22;461;51.436;7.312;2024-03-08T19:02:58;9.70;95.00
949;DHT22;461;51.436;7.312;2024-03-08T19:05:31;9.70;95.30
949;DHT22;461;51.436;7.312;2024-03-08T19:08:00;9.60;95.60
949;DHT22;461;51.436;7.312;2024-03-08T19:10:34;9.50;95.90
949;DHT22;461;51.436;7.312;2024-03-08T19:13:02;9.40;96.20
949;DHT22;461;51.436;7.312;2024-03-08T19:15:29;9.40;96.60
949;DHT22;461;51.436;7.312;2024-03-08T19:17:59;9.30;96.70
949;DHT22;461;51.436;7.312;2024-03-08T19:20:27;9.20;97.20
949;DHT22;461;51.436;7.312;2024-03-08T19:22:57;9.10;97.50
949;DHT22;461;51.436;7.312;2024-03-08T19:25:30;8.90;98.00
949;DHT22;461;51.436;7.312;2024-03-08T19:28:02;8.80;98.50
949;DHT22;461;51.436;7.312;2024-03-08T19:30:30;8.80;99.00
949;DHT22;461;51.436;7.312;2024-03-08T19:33:00;8.70;99.40
949;DHT22;461;51.436;7.312;2024-03-08T19:35:28;8.70;99.70
949;DHT22;461;51.436;7.312;2024-03-08T19:40:28;8.60;99.90
949;DHT22;461;51.436;7.312;2024-03-08T19:43:03;8.60;99.90
949;DHT22;461;51.436;7.312;2024-03-08T19:45:31;8.60;99.90
949;DHT22;461;51.436;7.312;2024-03-08T19:48:02;8.60;99.90
949;DHT22;461;51.436;7.312;2024-03-08T19:50:32;8.40;99.90
949;DHT22;461;51.436;7.312;2024-03-08T19:52:59;8.40;99.90
949;DHT22;461;51.436;7.312;2024-03-08T19:55:30;8.30;99.90
949;DHT22;461;51.436;7.312;2024-03-08T19:57:58;8.30;99.90
949;DHT22;461;51.436;7.312;2024-03-08T20:00:25;8.20;99.90
949;DHT22;461;51.436;7.312;2024-03-08T20:02:55;8.10;99.90
949;DHT22;461;51.436;7.312;2024-03-08T20:05:22;8.00;99.90
949;DHT22;461;51.436;7.312;2024-03-08T20:07:51;7.90;99.90
949;DHT22;461;51.436;7.312;2024-03-08T20:10:30;7.80;99.90
949;DHT22;461;51.436;7.312;2024-03-08T20:12:56;7.80;99.90
949;DHT22;461;51.436;7.312;2024-03-08T20:15:24;7.80;99.90
949;DHT22;461;51.436;7.312;2024-03-08T20:17:51;7.70;99.90
949;DHT22;461;51.436;7.312;2024-03-08T20:20:18;7.70;99.90
949;DHT22;461;51.436;7.312;2024-03-08T20:22:47;7.70;99.90
949;DHT22;461;51.436;7.312;2024-03-08T20:25:20;7.60;99.90
949;DHT22;461;51.436;7.312;2024-03-08T20:27:51;7.70;99.90
949;DHT22;461;51.436;7.312;2024-03-08T20:30:25;7.70;99.90
949;DHT22;461;51.436;7.312;2024-03-08T20:33:00;7.70;99.90
949;DHT22;461;51.436;7.312;2024-03-08T20:35:33;7.60;99.90
949;DHT22;461;51.436;7.312;2024-03-08T20:38:00;7.50;99.90
949;DHT22;461;51.436;7.312;2024-03-08T20:40:28;7.40;99.90
949;DHT22;461;51.436;7.312;2024-03-08T20:42:58;7.40;99.90
949;DHT22;461;51.436;7.312;2024-03-08T20:45:24;7.30;99.90
949;DHT22;461;51.436;7.312;2024-03-08T20:47:51;7.30;99.90
949;DHT22;461;51.436;7.312;2024-03-08T20:50:17;7.20;99.90
949;DHT22;461;51.436;7.312;2024-03-08T20:52:44;7.20;99.90
949;DHT22;461;51.436;7.312;2024-03-08T20:55:11;7.20;99.90
949;DHT22;461;51.436;7.312;2024-03-08T20:57:51;7.10;99.90
949;DHT22;461;51.436;7.312;2024-03-08T21:00:22;7.10;99.90
949;DHT22;461;51.436;7.312;2024-03-08T21:03:09;7.00;99.90
949;DHT22;461;51.436;7.312;2024-03-08T21:05:36;7.00;99.90
949;DHT22;461;51.436;7.312;2024-03-08T21:08:23;6.90;99.90
949;DHT22;461;51.436;7.312;2024-03-08T21:10:54;6.80;99.90
949;DHT22;461;51.436;7.312;2024-03-08T21:13:21;6.80;99.90
949;DHT22;461;51.436;7.312;2024-03-08T21:15:49;6.80;99.90
949;DHT22;461;51.436;7.312;2024-03-08T21:18:15;6.80;99.90
949;DHT22;461;51.436;7.312;2024-03-08T21:20:41;6.80;99.90
949;DHT22;461;51.436;7.312;2024-03-08T21:23:08;6.80;99.90
949;DHT22;461;51.436;7.312;2024-03-08T21:25:36;6.70;99.90
949;DHT22;461;51.436;7.312;2024-03-08T21:28:05;6.80;99.90
949;DHT22;461;51.436;7.312;2024-03-08T21:30:32;6.80;99.90
949;DHT22;461;51.436;7.312;2024-03-08T21:32:58;6.80;99.90
949;DHT22;461;51.436;7.312;2024-03-08T21:35:26;6.80;99.90
949;DHT22;461;51.436;7.312;2024-03-08T21:37:55;6.80;99.90
949;DHT22;461;51.436;7.312;2024-03-08T21:40:21;6.80;99.90
949;DHT22;461;51.436;7.312;2024-03-08T21:42:48;6.80;99.90
949;DHT22;461;51.436;7.312;2024-03-08T21:45:15;6.80;99.90
949;DHT22;461;51.436;7.312;2024-03-08T21:47:45;6.70;99.90
949;DHT22;461;51.436;7.312;2024-03-08T21:50:12;6.70;99.90
949;DHT22;461;51.436;7.312;2024-03-08T21:52:44;6.80;99.90
949;DHT22;461;51.436;7.312;2024-03-08T21:55:11;6.80;99.90
949;DHT22;461;51.436;7.312;2024-03-08T21:57:37;6.80;99.90
949;DHT22;461;51.436;7.312;2024-03-08T22:00:06;6.80;99.90
949;DHT22;461;51.436;7.312;2024-03-08T22:02:43;6.70;99.90
949;DHT22;461;51.436;7.312;2024-03-08T22:05:15;6.50;99.90
949;DHT22;461;51.436;7.312;2024-03-08T22:07:50;6.50;99.90
949;DHT22;461;51.436;7.312;2024-03-08T22:10:17;6.40;99.90
949;DHT22;461;51.436;7.312;2024-03-08T22:12:52;6.40;99.90
949;DHT22;461;51.436;7.312;2024-03-08T22:15:20;6.40;99.90
949;DHT22;461;51.436;7.312;2024-03-08T22:17:48;6.40;99.90
949;DHT22;461;51.436;7.312;2024-03-08T22:20:19;6.40;99.90
949;DHT22;461;51.436;7.312;2024-03-08T22:22:50;6.30;99.90
949;DHT22;461;51.436;7.312;2024-03-08T22:25:17;6.30;99.90
949;DHT22;461;51.436;7.312;2024-03-08T22:27:44;6.30;99.90
949;DHT22;461;51.436;7.312;2024-03-08T22:30:11;6.20;99.90
949;DHT22;461;51.436;7.312;2024-03-08T22:32:41;6.20;99.90
949;DHT22;461;51.436;7.312;2024-03-08T22:35:07;6.10;99.90
949;DHT22;461;51.436;7.312;2024-03-08T22:37:35;6.10;99.90
949;DHT22;461;51.436;7.312;2024-03-08T22:40:03;6.10;99.90
949;DHT22;461;51.436;7.312;2024-03-08T22:42:40;6.10;99.90
949;DHT22;461;51.436;7.312;2024-03-08T22:45:06;6.00;99.90
949;DHT22;461;51.436;7.312;2024-03-08T22:47:41;6.00;99.90
949;DHT22;461;51.436;7.312;2024-03-08T22:50:10;5.90;99.90
